Inicio METAR Ruta Wind Satelite

Informe Meteorológico

Fecha: 2020/07/02 00:21:25 Local
2020.07.02 05:21 UTC


Estado: VENCIDO
Operación:VFR
Cartagena / Rafael Nunez, Colombia (SKCG) 10-27N 075-31W 12M
2020.07.01 2300 UTC
Wind: from the NW (310 degrees) at 6 MPH (5 KT) (direction variable):0
Visibility: greater than 7 mile(s):0
Sky conditions: mostly cloudy
Temperature: 86 F (30 C)
Heat index: 99.3 F (37.4 C):1
Dew Point: 78 F (26 C)
Relative Humidity: 79%
Pressure (altimeter): 29.77 in. Hg (1008 hPa)
ob: SKCG 012300Z 31005KT 230V320 9999 FEW015 BKN080 30/26 A2977
cycle: 23

SKCG 012200Z 28004KT 240V310 9999 SCT016 BKN080 30/26 A2976
SKCG 012100Z 29009KT 230V310 9999 BKN016 30/26 A2976 RETS
SKCG 012000Z 31011KT 9999 TS FEW015CB SCT016 BKN200 30/26 A2978 RMK CB VCSH/E
SKCG 011900Z 26009KT 210V300 9999 TS FEW015CB SCT016 BKN200 32/26 A2979 RMK CB VCSH/E
SKCG 011800Z 24004KT 200V280 9999 FEW015CB BKN200 32/26 A2981 RMK CB/NE

2020/07/02 06:58
TAF SKCG 020430Z 0206/0306 VRB02KT 9999 SCT015 SCT100 PROB40
TEMPO 0209/0212 7000 DZ SCT015 BKN070
BECMG 0214/0216 32012KT
TEMPO 0219/0223 TS SCT016CB TX34/0219Z TN26/0211Z